sensor_id;sensor_type;location;lat;lon;timestamp;P1;durP1;ratioP1;P2;durP2;ratioP2
11596;SDS011;5854;48.072;16.286;2023-03-01T04:43:02;43.38;;;24.65;;
11596;SDS011;5854;48.072;16.286;2023-03-01T04:45:31;47.15;;;27.17;;
11596;SDS011;5854;48.072;16.286;2023-03-01T04:48:06;45.08;;;25.50;;
11596;SDS011;5854;48.072;16.286;2023-03-01T04:50:34;45.50;;;27.80;;
11596;SDS011;5854;48.072;16.286;2023-03-01T04:53:04;45.15;;;25.65;;
11596;SDS011;5854;48.072;16.286;2023-03-01T04:55:33;47.58;;;27.33;;
11596;SDS011;5854;48.072;16.286;2023-03-01T04:58:02;44.88;;;24.88;;
11596;SDS011;5854;48.072;16.286;2023-03-01T05:00:34;48.35;;;28.80;;
11596;SDS011;5854;48.072;16.286;2023-03-01T05:03:01;47.63;;;25.65;;
11596;SDS011;5854;48.072;16.286;2023-03-01T05:05:30;42.15;;;25.98;;
11596;SDS011;5854;48.072;16.286;2023-03-01T05:08:02;51.55;;;29.15;;
11596;SDS011;5854;48.072;16.286;2023-03-01T05:10:36;42.53;;;26.02;;
11596;SDS011;5854;48.072;16.286;2023-03-01T05:13:13;43.85;;;24.63;;
11596;SDS011;5854;48.072;16.286;2023-03-01T05:16:24;44.60;;;27.20;;
11596;SDS011;5854;48.072;16.286;2023-03-01T05:18:55;54.97;;;28.08;;
11596;SDS011;5854;48.072;16.286;2023-03-01T05:21:29;54.15;;;27.92;;
11596;SDS011;5854;48.072;16.286;2023-03-01T05:24:22;44.72;;;24.60;;
11596;SDS011;5854;48.072;16.286;2023-03-01T05:26:56;52.22;;;29.65;;
11596;SDS011;5854;48.072;16.286;2023-03-01T05:29:27;53.05;;;29.88;;
11596;SDS011;5854;48.072;16.286;2023-03-01T05:32:02;47.47;;;27.75;;
11596;SDS011;5854;48.072;16.286;2023-03-01T05:34:30;46.70;;;28.17;;
11596;SDS011;5854;48.072;16.286;2023-03-01T05:37:16;44.33;;;26.73;;
11596;SDS011;5854;48.072;16.286;2023-03-01T05:39:57;50.05;;;29.75;;
11596;SDS011;5854;48.072;16.286;2023-03-01T05:42:25;36.42;;;21.80;;
11596;SDS011;5854;48.072;16.286;2023-03-01T05:44:56;51.28;;;30.50;;
11596;SDS011;5854;48.072;16.286;2023-03-01T05:47:26;48.03;;;28.40;;
11596;SDS011;5854;48.072;16.286;2023-03-01T05:49:53;45.20;;;28.80;;
11596;SDS011;5854;48.072;16.286;2023-03-01T05:52:20;46.33;;;28.00;;
11596;SDS011;5854;48.072;16.286;2023-03-01T05:54:47;51.13;;;28.73;;
11596;SDS011;5854;48.072;16.286;2023-03-01T05:57:14;49.78;;;28.95;;
11596;SDS011;5854;48.072;16.286;2023-03-01T05:59:43;47.72;;;28.92;;
11596;SDS011;5854;48.072;16.286;2023-03-01T06:02:10;49.40;;;30.35;;
11596;SDS011;5854;48.072;16.286;2023-03-01T06:04:38;50.60;;;30.20;;
11596;SDS011;5854;48.072;16.286;2023-03-01T06:07:05;39.22;;;25.98;;
11596;SDS011;5854;48.072;16.286;2023-03-01T06:09:32;45.33;;;26.92;;
11596;SDS011;5854;48.072;16.286;2023-03-01T06:11:59;50.83;;;27.95;;
11596;SDS011;5854;48.072;16.286;2023-03-01T06:14:26;49.70;;;29.35;;
11596;SDS011;5854;48.072;16.286;2023-03-01T06:16:55;33.92;;;21.50;;
11596;SDS011;5854;48.072;16.286;2023-03-01T06:19:22;44.80;;;26.15;;
11596;SDS011;5854;48.072;16.286;2023-03-01T06:21:49;57.95;;;30.63;;
11596;SDS011;5854;48.072;16.286;2023-03-01T06:24:16;48.05;;;28.65;;
11596;SDS011;5854;48.072;16.286;2023-03-01T06:26:45;45.15;;;27.55;;
11596;SDS011;5854;48.072;16.286;2023-03-01T06:29:15;49.50;;;27.40;;
11596;SDS011;5854;48.072;16.286;2023-03-01T06:31:42;49.28;;;27.67;;
11596;SDS011;5854;48.072;16.286;2023-03-01T06:34:12;49.53;;;30.23;;
11596;SDS011;5854;48.072;16.286;2023-03-01T06:36:39;51.22;;;30.67;;
11596;SDS011;5854;48.072;16.286;2023-03-01T06:39:06;51.35;;;31.02;;
11596;SDS011;5854;48.072;16.286;2023-03-01T06:41:34;45.00;;;27.92;;
11596;SDS011;5854;48.072;16.286;2023-03-01T06:44:01;49.22;;;29.45;;
11596;SDS011;5854;48.072;16.286;2023-03-01T06:46:28;53.88;;;30.80;;
11596;SDS011;5854;48.072;16.286;2023-03-01T06:48:55;55.63;;;31.77;;
11596;SDS011;5854;48.072;16.286;2023-03-01T06:51:24;53.75;;;30.73;;
11596;SDS011;5854;48.072;16.286;2023-03-01T06:53:51;50.25;;;30.17;;
11596;SDS011;5854;48.072;16.286;2023-03-01T06:56:18;54.80;;;32.13;;
11596;SDS011;5854;48.072;16.286;2023-03-01T06:58:45;54.83;;;31.05;;
11596;SDS011;5854;48.072;16.286;2023-03-01T07:01:12;46.55;;;29.63;;
11596;SDS011;5854;48.072;16.286;2023-03-01T07:03:39;52.10;;;31.05;;
11596;SDS011;5854;48.072;16.286;2023-03-01T07:06:09;54.17;;;30.55;;
11596;SDS011;5854;48.072;16.286;2023-03-01T07:08:37;53.00;;;30.52;;
11596;SDS011;5854;48.072;16.286;2023-03-01T07:11:04;54.65;;;31.58;;
11596;SDS011;5854;48.072;16.286;2023-03-01T07:13:32;57.90;;;30.95;;
11596;SDS011;5854;48.072;16.286;2023-03-01T07:16:04;55.60;;;32.58;;
11596;SDS011;5854;48.072;16.286;2023-03-01T07:18:32;52.55;;;32.08;;
11596;SDS011;5854;48.072;16.286;2023-03-01T07:21:03;52.90;;;31.75;;
11596;SDS011;5854;48.072;16.286;2023-03-01T07:26:18;59.28;;;33.67;;
11596;SDS011;5854;48.072;16.286;2023-03-01T07:28:45;64.20;;;31.70;;
11596;SDS011;5854;48.072;16.286;2023-03-01T07:31:12;65.05;;;31.35;;
11596;SDS011;5854;48.072;16.286;2023-03-01T07:33:43;61.72;;;31.05;;
11596;SDS011;5854;48.072;16.286;2023-03-01T07:36:10;55.08;;;29.98;;
11596;SDS011;5854;48.072;16.286;2023-03-01T07:39:00;53.70;;;31.63;;
11596;SDS011;5854;48.072;16.286;2023-03-01T07:41:28;56.05;;;30.58;;
11596;SDS011;5854;48.072;16.286;2023-03-01T07:43:55;57.13;;;31.55;;
11596;SDS011;5854;48.072;16.286;2023-03-01T07:46:22;58.42;;;30.75;;
11596;SDS011;5854;48.072;16.286;2023-03-01T07:48:49;53.88;;;30.52;;
11596;SDS011;5854;48.072;16.286;2023-03-01T07:51:27;51.45;;;30.75;;
11596;SDS011;5854;48.072;16.286;2023-03-01T07:53:56;55.83;;;29.73;;
11596;SDS011;5854;48.072;16.286;2023-03-01T07:56:31;56.05;;;30.02;;
11596;SDS011;5854;48.072;16.286;2023-03-01T07:59:11;57.38;;;32.65;;
11596;SDS011;5854;48.072;16.286;2023-03-01T08:02:06;56.22;;;31.73;;
11596;SDS011;5854;48.072;16.286;2023-03-01T08:04:34;50.53;;;29.88;;
11596;SDS011;5854;48.072;16.286;2023-03-01T08:07:04;58.58;;;31.33;;
11596;SDS011;5854;48.072;16.286;2023-03-01T08:09:33;51.78;;;30.92;;
11596;SDS011;5854;48.072;16.286;2023-03-01T08:12:01;58.97;;;30.83;;
11596;SDS011;5854;48.072;16.286;2023-03-01T08:14:29;48.20;;;30.17;;
11596;SDS011;5854;48.072;16.286;2023-03-01T08:16:56;53.47;;;30.30;;
11596;SDS011;5854;48.072;16.286;2023-03-01T08:19:24;45.75;;;27.15;;
11596;SDS011;5854;48.072;16.286;2023-03-01T08:21:53;45.47;;;28.65;;
11596;SDS011;5854;48.072;16.286;2023-03-01T08:24:20;42.00;;;27.10;;
11596;SDS011;5854;48.072;16.286;2023-03-01T08:26:49;48.15;;;28.10;;
11596;SDS011;5854;48.072;16.286;2023-03-01T08:29:16;43.33;;;27.35;;
11596;SDS011;5854;48.072;16.286;2023-03-01T08:31:43;50.38;;;29.52;;
11596;SDS011;5854;48.072;16.286;2023-03-01T08:34:11;47.08;;;27.25;;
11596;SDS011;5854;48.072;16.286;2023-03-01T08:36:42;52.78;;;28.45;;
11596;SDS011;5854;48.072;16.286;2023-03-01T08:39:12;51.03;;;31.42;;
11596;SDS011;5854;48.072;16.286;2023-03-01T08:41:41;47.92;;;28.05;;
11596;SDS011;5854;48.072;16.286;2023-03-01T08:44:10;53.33;;;31.88;;
11596;SDS011;5854;48.072;16.286;2023-03-01T08:46:40;47.13;;;18.55;;
11596;SDS011;5854;48.072;16.286;2023-03-01T08:49:08;53.45;;;30.58;;
11596;SDS011;5854;48.072;16.286;2023-03-01T08:51:41;55.47;;;30.42;;
11596;SDS011;5854;48.072;16.286;2023-03-01T08:54:09;51.38;;;26.77;;
11596;SDS011;5854;48.072;16.286;2023-03-01T08:56:39;60.20;;;32.47;;
11596;SDS011;5854;48.072;16.286;2023-03-01T08:59:11;52.17;;;31.83;;
11596;SDS011;5854;48.072;16.286;2023-03-01T09:02:02;54.72;;;29.52;;
11596;SDS011;5854;48.072;16.286;2023-03-01T09:04:29;47.50;;;27.70;;
11596;SDS011;5854;48.072;16.286;2023-03-01T09:06:58;51.88;;;27.70;;
11596;SDS011;5854;48.072;16.286;2023-03-01T09:09:25;45.10;;;27.10;;
11596;SDS011;5854;48.072;16.286;2023-03-01T09:11:52;42.25;;;26.27;;
11596;SDS011;5854;48.072;16.286;2023-03-01T09:14:20;50.65;;;27.80;;
11596;SDS011;5854;48.072;16.286;2023-03-01T09:16:47;44.78;;;27.05;;
11596;SDS011;5854;48.072;16.286;2023-03-01T09:19:15;49.13;;;27.98;;
11596;SDS011;5854;48.072;16.286;2023-03-01T09:21:42;45.92;;;25.65;;
11596;SDS011;5854;48.072;16.286;2023-03-01T09:24:17;43.15;;;25.88;;
11596;SDS011;5854;48.072;16.286;2023-03-01T09:26:46;46.47;;;25.13;;
11596;SDS011;5854;48.072;16.286;2023-03-01T09:29:13;46.00;;;27.75;;
11596;SDS011;5854;48.072;16.286;2023-03-01T09:31:43;46.35;;;27.02;;
11596;SDS011;5854;48.072;16.286;2023-03-01T09:34:10;47.38;;;28.58;;
11596;SDS011;5854;48.072;16.286;2023-03-01T09:36:40;43.08;;;27.17;;
11596;SDS011;5854;48.072;16.286;2023-03-01T09:39:07;33.60;;;20.90;;
11596;SDS011;5854;48.072;16.286;2023-03-01T09:41:38;42.38;;;25.27;;
11596;SDS011;5854;48.072;16.286;2023-03-01T09:44:20;40.17;;;24.05;;
11596;SDS011;5854;48.072;16.286;2023-03-01T09:46:55;45.28;;;27.75;;
11596;SDS011;5854;48.072;16.286;2023-03-01T09:49:24;40.78;;;26.35;;
11596;SDS011;5854;48.072;16.286;2023-03-01T09:51:57;37.22;;;24.10;;
11596;SDS011;5854;48.072;16.286;2023-03-01T09:54:29;46.47;;;26.67;;
11596;SDS011;5854;48.072;16.286;2023-03-01T09:57:01;38.13;;;25.52;;
11596;SDS011;5854;48.072;16.286;2023-03-01T09:59:48;43.05;;;25.65;;
11596;SDS011;5854;48.072;16.286;2023-03-01T10:02:32;38.15;;;24.23;;
11596;SDS011;5854;48.072;16.286;2023-03-01T10:05:14;33.28;;;18.25;;
11596;SDS011;5854;48.072;16.286;2023-03-01T10:08:18;39.05;;;24.17;;
11596;SDS011;5854;48.072;16.286;2023-03-01T10:11:02;43.88;;;26.70;;
11596;SDS011;5854;48.072;16.286;2023-03-01T10:13:33;37.75;;;23.10;;
11596;SDS011;5854;48.072;16.286;2023-03-01T10:16:12;41.65;;;24.92;;
11596;SDS011;5854;48.072;16.286;2023-03-01T10:18:45;37.72;;;23.55;;
11596;SDS011;5854;48.072;16.286;2023-03-01T10:21:19;39.00;;;23.38;;
11596;SDS011;5854;48.072;16.286;2023-03-01T10:23:49;39.92;;;24.98;;
11596;SDS011;5854;48.072;16.286;2023-03-01T10:26:25;44.20;;;26.48;;
11596;SDS011;5854;48.072;16.286;2023-03-01T10:29:08;38.28;;;24.77;;
11596;SDS011;5854;48.072;16.286;2023-03-01T10:31:38;37.72;;;24.02;;
11596;SDS011;5854;48.072;16.286;2023-03-01T10:34:15;37.75;;;24.45;;
11596;SDS011;5854;48.072;16.286;2023-03-01T10:36:47;38.05;;;24.48;;
11596;SDS011;5854;48.072;16.286;2023-03-01T10:39:18;38.65;;;24.50;;
11596;SDS011;5854;48.072;16.286;2023-03-01T10:41:55;37.55;;;25.73;;
11596;SDS011;5854;48.072;16.286;2023-03-01T10:47:17;38.40;;;23.95;;
11596;SDS011;5854;48.072;16.286;2023-03-01T10:49:52;36.17;;;24.60;;
11596;SDS011;5854;48.072;16.286;2023-03-01T10:52:27;36.10;;;23.70;;
11596;SDS011;5854;48.072;16.286;2023-03-01T10:55:02;42.08;;;25.35;;
11596;SDS011;5854;48.072;16.286;2023-03-01T10:57:50;45.35;;;23.90;;
11596;SDS011;5854;48.072;16.286;2023-03-01T11:00:45;42.47;;;26.60;;
11596;SDS011;5854;48.072;16.286;2023-03-01T11:03:16;34.80;;;21.83;;
11596;SDS011;5854;48.072;16.286;2023-03-01T11:05:53;35.67;;;23.80;;
11596;SDS011;5854;48.072;16.286;2023-03-01T11:08:33;33.90;;;22.75;;
11596;SDS011;5854;48.072;16.286;2023-03-01T11:11:13;37.67;;;23.17;;
11596;SDS011;5854;48.072;16.286;2023-03-01T11:13:51;35.75;;;22.23;;
11596;SDS011;5854;48.072;16.286;2023-03-01T11:16:25;39.00;;;23.90;;
11596;SDS011;5854;48.072;16.286;2023-03-01T11:19:00;38.97;;;23.73;;
11596;SDS011;5854;48.072;16.286;2023-03-01T11:21:50;35.47;;;23.30;;
11596;SDS011;5854;48.072;16.286;2023-03-01T11:24:25;34.10;;;22.85;;
11596;SDS011;5854;48.072;16.286;2023-03-01T11:26:59;30.33;;;22.20;;
11596;SDS011;5854;48.072;16.286;2023-03-01T11:29:33;34.42;;;22.65;;
11596;SDS011;5854;48.072;16.286;2023-03-01T11:32:06;32.97;;;21.27;;
11596;SDS011;5854;48.072;16.286;2023-03-01T11:34:38;33.55;;;22.38;;
11596;SDS011;5854;48.072;16.286;2023-03-01T11:37:12;31.73;;;21.80;;
11596;SDS011;5854;48.072;16.286;2023-03-01T11:39:52;33.85;;;21.70;;
11596;SDS011;5854;48.072;16.286;2023-03-01T11:42:33;28.15;;;20.40;;
11596;SDS011;5854;48.072;16.286;2023-03-01T11:45:11;34.30;;;21.10;;
11596;SDS011;5854;48.072;16.286;2023-03-01T11:47:43;34.78;;;22.73;;
11596;SDS011;5854;48.072;16.286;2023-03-01T11:50:26;35.97;;;21.55;;
11596;SDS011;5854;48.072;16.286;2023-03-01T11:53:09;29.52;;;20.75;;
11596;SDS011;5854;48.072;16.286;2023-03-01T11:55:57;37.75;;;21.67;;
11596;SDS011;5854;48.072;16.286;2023-03-01T11:58:44;36.72;;;23.38;;
11596;SDS011;5854;48.072;16.286;2023-03-01T12:01:27;34.75;;;22.13;;
11596;SDS011;5854;48.072;16.286;2023-03-01T12:07:20;35.13;;;21.63;;
11596;SDS011;5854;48.072;16.286;2023-03-01T12:10:14;33.63;;;22.85;;
11596;SDS011;5854;48.072;16.286;2023-03-01T12:12:58;34.10;;;24.02;;
11596;SDS011;5854;48.072;16.286;2023-03-01T12:15:49;31.90;;;20.77;;
11596;SDS011;5854;48.072;16.286;2023-03-01T12:21:23;30.63;;;21.58;;
11596;SDS011;5854;48.072;16.286;2023-03-01T12:24:19;30.92;;;22.17;;
11596;SDS011;5854;48.072;16.286;2023-03-01T12:30:26;32.78;;;21.23;;
11596;SDS011;5854;48.072;16.286;2023-03-01T12:33:07;34.70;;;22.50;;
11596;SDS011;5854;48.072;16.286;2023-03-01T12:41:38;35.05;;;23.58;;
11596;SDS011;5854;48.072;16.286;2023-03-01T12:44:20;33.40;;;23.25;;
11596;SDS011;5854;48.072;16.286;2023-03-01T12:47:14;35.63;;;23.65;;
11596;SDS011;5854;48.072;16.286;2023-03-01T12:49:54;28.25;;;18.85;;
11596;SDS011;5854;48.072;16.286;2023-03-01T12:52:27;36.17;;;24.40;;
11596;SDS011;5854;48.072;16.286;2023-03-01T12:55:02;36.78;;;22.50;;
11596;SDS011;5854;48.072;16.286;2023-03-01T12:57:51;31.30;;;22.45;;
11596;SDS011;5854;48.072;16.286;2023-03-01T13:00:35;33.85;;;22.90;;
11596;SDS011;5854;48.072;16.286;2023-03-01T13:03:12;35.40;;;22.83;;
11596;SDS011;5854;48.072;16.286;2023-03-01T13:05:53;28.05;;;20.90;;
11596;SDS011;5854;48.072;16.286;2023-03-01T13:08:31;41.00;;;23.48;;
11596;SDS011;5854;48.072;16.286;2023-03-01T13:11:11;30.85;;;22.63;;
11596;SDS011;5854;48.072;16.286;2023-03-01T13:13:44;36.08;;;24.23;;
11596;SDS011;5854;48.072;16.286;2023-03-01T13:16:27;34.20;;;24.42;;
11596;SDS011;5854;48.072;16.286;2023-03-01T13:19:08;35.92;;;22.42;;
11596;SDS011;5854;48.072;16.286;2023-03-01T13:21:41;31.08;;;20.08;;
11596;SDS011;5854;48.072;16.286;2023-03-01T13:24:23;30.08;;;21.27;;
11596;SDS011;5854;48.072;16.286;2023-03-01T13:27:11;32.42;;;22.30;;
11596;SDS011;5854;48.072;16.286;2023-03-01T13:29:55;27.90;;;20.65;;
11596;SDS011;5854;48.072;16.286;2023-03-01T13:32:30;31.23;;;19.58;;
11596;SDS011;5854;48.072;16.286;2023-03-01T13:34:58;31.27;;;20.77;;
11596;SDS011;5854;48.072;16.286;2023-03-01T13:37:30;23.83;;;18.85;;
11596;SDS011;5854;48.072;16.286;2023-03-01T13:40:01;32.28;;;18.83;;
11596;SDS011;5854;48.072;16.286;2023-03-01T13:42:51;30.55;;;20.30;;
11596;SDS011;5854;48.072;16.286;2023-03-01T13:45:20;29.67;;;20.30;;
11596;SDS011;5854;48.072;16.286;2023-03-01T13:48:03;25.13;;;20.07;;
11596;SDS011;5854;48.072;16.286;2023-03-01T13:50:37;27.83;;;19.98;;
11596;SDS011;5854;48.072;16.286;2023-03-01T13:53:14;29.85;;;18.58;;
11596;SDS011;5854;48.072;16.286;2023-03-01T13:58:15;31.40;;;19.58;;
11596;SDS011;5854;48.072;16.286;2023-03-01T14:00:54;31.73;;;20.88;;
11596;SDS011;5854;48.072;16.286;2023-03-01T14:03:25;28.13;;;20.15;;
11596;SDS011;5854;48.072;16.286;2023-03-01T14:06:04;27.08;;;19.95;;
11596;SDS011;5854;48.072;16.286;2023-03-01T14:08:44;25.70;;;18.90;;
11596;SDS011;5854;48.072;16.286;2023-03-01T14:11:20;31.30;;;19.65;;
11596;SDS011;5854;48.072;16.286;2023-03-01T14:14:24;29.33;;;19.00;;
11596;SDS011;5854;48.072;16.286;2023-03-01T14:20:49;29.70;;;20.80;;
11596;SDS011;5854;48.072;16.286;2023-03-01T14:23:18;26.83;;;20.23;;
11596;SDS011;5854;48.072;16.286;2023-03-01T14:25:48;24.52;;;18.33;;
11596;SDS011;5854;48.072;16.286;2023-03-01T14:28:18;31.90;;;21.23;;
11596;SDS011;5854;48.072;16.286;2023-03-01T14:30:48;26.75;;;20.70;;
11596;SDS011;5854;48.072;16.286;2023-03-01T14:33:20;29.92;;;19.77;;
11596;SDS011;5854;48.072;16.286;2023-03-01T14:41:18;28.65;;;18.40;;
11596;SDS011;5854;48.072;16.286;2023-03-01T14:43:50;27.17;;;20.55;;
11596;SDS011;5854;48.072;16.286;2023-03-01T14:46:24;26.48;;;19.02;;
11596;SDS011;5854;48.072;16.286;2023-03-01T14:49:01;23.95;;;17.23;;
11596;SDS011;5854;48.072;16.286;2023-03-01T14:51:37;27.85;;;17.85;;
11596;SDS011;5854;48.072;16.286;2023-03-01T14:54:10;27.98;;;17.58;;
11596;SDS011;5854;48.072;16.286;2023-03-01T14:56:47;24.83;;;18.00;;
11596;SDS011;5854;48.072;16.286;2023-03-01T14:59:18;26.63;;;18.90;;
11596;SDS011;5854;48.072;16.286;2023-03-01T15:01:48;26.45;;;18.80;;
11596;SDS011;5854;48.072;16.286;2023-03-01T15:04:16;23.90;;;17.63;;
11596;SDS011;5854;48.072;16.286;2023-03-01T15:06:44;21.75;;;16.10;;
11596;SDS011;5854;48.072;16.286;2023-03-01T15:09:15;21.08;;;16.27;;
11596;SDS011;5854;48.072;16.286;2023-03-01T15:11:43;24.23;;;17.58;;
11596;SDS011;5854;48.072;16.286;2023-03-01T15:14:27;25.75;;;17.98;;
11596;SDS011;5854;48.072;16.286;2023-03-01T15:17:13;24.23;;;17.30;;
11596;SDS011;5854;48.072;16.286;2023-03-01T15:19:49;19.63;;;14.45;;
11596;SDS011;5854;48.072;16.286;2023-03-01T15:22:16;20.42;;;15.20;;
11596;SDS011;5854;48.072;16.286;2023-03-01T15:24:47;25.73;;;16.38;;
11596;SDS011;5854;48.072;16.286;2023-03-01T15:27:16;24.17;;;17.23;;
11596;SDS011;5854;48.072;16.286;2023-03-01T15:29:48;22.58;;;17.45;;
11596;SDS011;5854;48.072;16.286;2023-03-01T15:32:24;21.38;;;16.17;;
11596;SDS011;5854;48.072;16.286;2023-03-01T15:34:55;30.70;;;19.23;;
11596;SDS011;5854;48.072;16.286;2023-03-01T15:37:37;28.55;;;20.40;;
11596;SDS011;5854;48.072;16.286;2023-03-01T15:40:22;29.65;;;20.25;;
11596;SDS011;5854;48.072;16.286;2023-03-01T15:42:56;34.78;;;20.73;;
11596;SDS011;5854;48.072;16.286;2023-03-01T15:45:25;30.73;;;21.23;;
11596;SDS011;5854;48.072;16.286;2023-03-01T15:47:54;233.63;;;27.85;;
11596;SDS011;5854;48.072;16.286;2023-03-01T15:50:27;33.30;;;20.65;;
11596;SDS011;5854;48.072;16.286;2023-03-01T15:52:58;32.40;;;21.10;;
11596;SDS011;5854;48.072;16.286;2023-03-01T15:55:29;33.33;;;22.90;;
11596;SDS011;5854;48.072;16.286;2023-03-01T15:57:59;30.58;;;22.45;;
11596;SDS011;5854;48.072;16.286;2023-03-01T16:00:29;26.45;;;21.30;;
11596;SDS011;5854;48.072;16.286;2023-03-01T16:02:56;30.50;;;21.48;;
11596;SDS011;5854;48.072;16.286;2023-03-01T16:05:24;31.55;;;20.75;;
11596;SDS011;5854;48.072;16.286;2023-03-01T16:07:53;33.67;;;21.58;;
11596;SDS011;5854;48.072;16.286;2023-03-01T16:10:21;34.08;;;23.60;;
11596;SDS011;5854;48.072;16.286;2023-03-01T16:12:50;55.63;;;24.23;;
11596;SDS011;5854;48.072;16.286;2023-03-01T16:15:19;32.60;;;22.70;;
11596;SDS011;5854;48.072;16.286;2023-03-01T16:17:49;29.48;;;22.17;;
11596;SDS011;5854;48.072;16.286;2023-03-01T16:20:17;37.13;;;23.00;;
11596;SDS011;5854;48.072;16.286;2023-03-01T16:22:45;29.35;;;21.15;;
11596;SDS011;5854;48.072;16.286;2023-03-01T16:25:13;35.53;;;25.30;;
11596;SDS011;5854;48.072;16.286;2023-03-01T16:27:42;34.08;;;23.48;;
11596;SDS011;5854;48.072;16.286;2023-03-01T16:30:13;29.42;;;22.60;;
11596;SDS011;5854;48.072;16.286;2023-03-01T16:32:44;45.50;;;28.33;;
11596;SDS011;5854;48.072;16.286;2023-03-01T16:35:23;32.38;;;24.42;;
11596;SDS011;5854;48.072;16.286;2023-03-01T16:41:25;58.75;;;43.85;;
11596;SDS011;5854;48.072;16.286;2023-03-01T16:43:56;45.88;;;28.60;;
11596;SDS011;5854;48.072;16.286;2023-03-01T16:46:28;31.50;;;24.35;;
11596;SDS011;5854;48.072;16.286;2023-03-01T16:48:56;38.60;;;28.35;;
11596;SDS011;5854;48.072;16.286;2023-03-01T16:51:23;50.97;;;45.45;;
11596;SDS011;5854;48.072;16.286;2023-03-01T16:53:51;56.20;;;44.47;;
11596;SDS011;5854;48.072;16.286;2023-03-01T16:56:21;45.25;;;29.63;;
11596;SDS011;5854;48.072;16.286;2023-03-01T16:58:51;42.97;;;30.95;;
11596;SDS011;5854;48.072;16.286;2023-03-01T17:01:19;39.83;;;26.52;;
11596;SDS011;5854;48.072;16.286;2023-03-01T17:03:51;33.93;;;25.80;;
11596;SDS011;5854;48.072;16.286;2023-03-01T17:06:20;39.08;;;27.30;;
11596;SDS011;5854;48.072;16.286;2023-03-01T17:08:49;60.15;;;38.78;;
11596;SDS011;5854;48.072;16.286;2023-03-01T17:11:17;49.25;;;28.33;;
11596;SDS011;5854;48.072;16.286;2023-03-01T17:13:46;38.20;;;26.63;;
11596;SDS011;5854;48.072;16.286;2023-03-01T17:16:20;38.92;;;27.75;;
11596;SDS011;5854;48.072;16.286;2023-03-01T17:22:29;36.40;;;24.73;;
11596;SDS011;5854;48.072;16.286;2023-03-01T17:27:43;38.13;;;24.42;;
11596;SDS011;5854;48.072;16.286;2023-03-01T17:30:11;28.80;;;22.70;;
11596;SDS011;5854;48.072;16.286;2023-03-01T17:32:40;32.78;;;23.85;;
11596;SDS011;5854;48.072;16.286;2023-03-01T17:35:12;33.83;;;24.30;;
11596;SDS011;5854;48.072;16.286;2023-03-01T17:37:41;26.67;;;22.70;;
11596;SDS011;5854;48.072;16.286;2023-03-01T17:40:11;27.85;;;21.80;;
11596;SDS011;5854;48.072;16.286;2023-03-01T17:42:38;36.78;;;24.23;;
11596;SDS011;5854;48.072;16.286;2023-03-01T17:45:06;32.25;;;23.35;;
11596;SDS011;5854;48.072;16.286;2023-03-01T17:47:34;37.88;;;24.08;;
11596;SDS011;5854;48.072;16.286;2023-03-01T17:50:01;32.65;;;23.23;;
11596;SDS011;5854;48.072;16.286;2023-03-01T17:52:31;32.40;;;21.65;;
11596;SDS011;5854;48.072;16.286;2023-03-01T17:54:58;26.38;;;21.83;;
11596;SDS011;5854;48.072;16.286;2023-03-01T17:57:25;34.22;;;21.63;;
11596;SDS011;5854;48.072;16.286;2023-03-01T17:59:52;33.08;;;22.58;;
11596;SDS011;5854;48.072;16.286;2023-03-01T18:02:19;35.08;;;24.65;;
11596;SDS011;5854;48.072;16.286;2023-03-01T18:04:47;38.42;;;25.02;;
11596;SDS011;5854;48.072;16.286;2023-03-01T18:07:14;30.88;;;23.70;;
11596;SDS011;5854;48.072;16.286;2023-03-01T18:09:42;29.73;;;22.92;;
11596;SDS011;5854;48.072;16.286;2023-03-01T18:12:09;34.92;;;24.00;;
11596;SDS011;5854;48.072;16.286;2023-03-01T18:14:36;40.88;;;25.08;;
11596;SDS011;5854;48.072;16.286;2023-03-01T18:17:04;39.25;;;26.83;;
11596;SDS011;5854;48.072;16.286;2023-03-01T18:19:35;39.47;;;26.58;;
11596;SDS011;5854;48.072;16.286;2023-03-01T18:22:05;34.80;;;23.52;;
11596;SDS011;5854;48.072;16.286;2023-03-01T18:24:33;34.38;;;24.85;;
11596;SDS011;5854;48.072;16.286;2023-03-01T18:27:01;33.47;;;24.40;;
11596;SDS011;5854;48.072;16.286;2023-03-01T18:29:28;35.60;;;22.63;;
11596;SDS011;5854;48.072;16.286;2023-03-01T18:31:56;30.77;;;23.42;;
11596;SDS011;5854;48.072;16.286;2023-03-01T18:34:23;36.13;;;20.20;;
11596;SDS011;5854;48.072;16.286;2023-03-01T18:36:50;33.17;;;24.90;;
11596;SDS011;5854;48.072;16.286;2023-03-01T18:39:19;30.00;;;23.02;;
11596;SDS011;5854;48.072;16.286;2023-03-01T18:41:50;30.33;;;21.40;;
11596;SDS011;5854;48.072;16.286;2023-03-01T18:44:19;31.65;;;22.95;;
11596;SDS011;5854;48.072;16.286;2023-03-01T18:46:46;36.65;;;22.02;;
11596;SDS011;5854;48.072;16.286;2023-03-01T18:49:13;37.10;;;24.58;;
11596;SDS011;5854;48.072;16.286;2023-03-01T18:51:41;35.17;;;23.58;;
11596;SDS011;5854;48.072;16.286;2023-03-01T18:54:09;31.95;;;22.75;;
11596;SDS011;5854;48.072;16.286;2023-03-01T18:56:37;32.38;;;23.40;;
11596;SDS011;5854;48.072;16.286;2023-03-01T18:59:05;30.83;;;22.38;;
11596;SDS011;5854;48.072;16.286;2023-03-01T19:01:33;33.65;;;23.23;;
11596;SDS011;5854;48.072;16.286;2023-03-01T19:04:00;31.75;;;23.25;;
11596;SDS011;5854;48.072;16.286;2023-03-01T19:06:28;32.22;;;21.38;;
11596;SDS011;5854;48.072;16.286;2023-03-01T19:08:58;31.08;;;21.38;;
11596;SDS011;5854;48.072;16.286;2023-03-01T19:11:25;33.28;;;23.13;;
11596;SDS011;5854;48.072;16.286;2023-03-01T19:13:54;34.17;;;23.58;;
11596;SDS011;5854;48.072;16.286;2023-03-01T19:16:23;35.33;;;23.70;;
11596;SDS011;5854;48.072;16.286;2023-03-01T19:18:55;34.28;;;24.17;;
11596;SDS011;5854;48.072;16.286;2023-03-01T19:21:26;32.38;;;23.52;;
11596;SDS011;5854;48.072;16.286;2023-03-01T19:23:56;31.83;;;23.02;;
11596;SDS011;5854;48.072;16.286;2023-03-01T19:26:24;34.28;;;24.13;;
11596;SDS011;5854;48.072;16.286;2023-03-01T19:28:53;31.30;;;22.65;;
11596;SDS011;5854;48.072;16.286;2023-03-01T19:31:21;35.70;;;23.08;;
11596;SDS011;5854;48.072;16.286;2023-03-01T19:33:50;28.48;;;22.27;;
11596;SDS011;5854;48.072;16.286;2023-03-01T19:36:20;27.75;;;21.15;;
11596;SDS011;5854;48.072;16.286;2023-03-01T19:38:53;33.40;;;23.88;;
11596;SDS011;5854;48.072;16.286;2023-03-01T19:41:20;28.85;;;22.65;;
11596;SDS011;5854;48.072;16.286;2023-03-01T19:43:47;35.92;;;23.83;;
11596;SDS011;5854;48.072;16.286;2023-03-01T19:46:14;49.35;;;25.58;;
11596;SDS011;5854;48.072;16.286;2023-03-01T19:48:41;34.28;;;23.13;;
11596;SDS011;5854;48.072;16.286;2023-03-01T19:51:09;35.72;;;24.42;;
11596;SDS011;5854;48.072;16.286;2023-03-01T19:53:38;32.33;;;22.27;;
11596;SDS011;5854;48.072;16.286;2023-03-01T19:56:06;34.90;;;22.52;;
11596;SDS011;5854;48.072;16.286;2023-03-01T19:58:34;30.15;;;20.65;;
11596;SDS011;5854;48.072;16.286;2023-03-01T20:01:02;35.92;;;23.27;;
11596;SDS011;5854;48.072;16.286;2023-03-01T20:03:30;32.72;;;21.75;;
11596;SDS011;5854;48.072;16.286;2023-03-01T20:05:59;33.03;;;22.95;;
11596;SDS011;5854;48.072;16.286;2023-03-01T20:08:33;35.22;;;22.20;;
11596;SDS011;5854;48.072;16.286;2023-03-01T20:11:02;37.72;;;22.15;;
11596;SDS011;5854;48.072;16.286;2023-03-01T20:13:31;36.63;;;21.42;;
11596;SDS011;5854;48.072;16.286;2023-03-01T20:15:58;30.45;;;21.35;;